sensor_id;sensor_type;location;lat;lon;timestamp;pressure;altitude;pressure_sealevel;temperature;humidity
72465;BME280;60471;52.150;4.508;2023-02-28T00:01:17;102967.94;;;5.06;71.54
72465;BME280;60471;52.150;4.508;2023-02-28T00:03:43;102964.31;;;4.90;71.89
72465;BME280;60471;52.150;4.508;2023-02-28T00:06:09;102959.97;;;4.92;72.40
72465;BME280;60471;52.150;4.508;2023-02-28T00:08:37;102967.94;;;5.06;72.34
72465;BME280;60471;52.150;4.508;2023-02-28T00:11:06;102967.88;;;4.98;72.09
72465;BME280;60471;52.150;4.508;2023-02-28T00:13:35;102974.94;;;5.08;72.35
72465;BME280;60471;52.150;4.508;2023-02-28T00:16:06;102973.31;;;5.19;72.17
72465;BME280;60471;52.150;4.508;2023-02-28T00:18:35;102972.38;;;5.13;71.95
72465;BME280;60471;52.150;4.508;2023-02-28T00:21:02;102975.88;;;5.12;72.12
72465;BME280;60471;52.150;4.508;2023-02-28T00:23:28;102969.88;;;5.28;72.20
72465;BME280;60471;52.150;4.508;2023-02-28T00:25:55;102972.56;;;5.33;71.55
72465;BME280;60471;52.150;4.508;2023-02-28T00:28:21;102969.00;;;5.24;71.90
72465;BME280;60471;52.150;4.508;2023-02-28T00:30:48;102975.13;;;5.30;71.77
72465;BME280;60471;52.150;4.508;2023-02-28T00:33:15;102975.22;;;5.40;70.99
72465;BME280;60471;52.150;4.508;2023-02-28T00:35:41;102965.63;;;5.41;70.96
72465;BME280;60471;52.150;4.508;2023-02-28T00:38:08;102970.91;;;5.47;70.83
72465;BME280;60471;52.150;4.508;2023-02-28T00:40:34;102964.88;;;5.54;70.72
72465;BME280;60471;52.150;4.508;2023-02-28T00:43:00;102971.78;;;5.47;70.98
72465;BME280;60471;52.150;4.508;2023-02-28T00:45:26;102973.47;;;5.39;70.88
72465;BME280;60471;52.150;4.508;2023-02-28T00:47:53;102969.16;;;5.46;70.82
72465;BME280;60471;52.150;4.508;2023-02-28T00:50:19;102963.06;;;5.50;70.41
72465;BME280;60471;52.150;4.508;2023-02-28T00:52:47;102956.94;;;5.46;70.54
72465;BME280;60471;52.150;4.508;2023-02-28T00:55:14;102959.56;;;5.48;70.41
72465;BME280;60471;52.150;4.508;2023-02-28T00:57:40;102968.38;;;5.56;70.89
72465;BME280;60471;52.150;4.508;2023-02-28T01:00:08;102968.22;;;5.38;71.36
72465;BME280;60471;52.150;4.508;2023-02-28T01:02:34;102966.56;;;5.52;71.63
72465;BME280;60471;52.150;4.508;2023-02-28T01:05:00;102965.69;;;5.50;71.35
72465;BME280;60471;52.150;4.508;2023-02-28T01:07:27;102963.19;;;5.65;71.27
72465;BME280;60471;52.150;4.508;2023-02-28T01:09:53;102973.53;;;5.44;71.97
72465;BME280;60471;52.150;4.508;2023-02-28T01:12:19;102973.47;;;5.42;71.57
72465;BME280;60471;52.150;4.508;2023-02-28T01:14:45;102969.97;;;5.39;72.56
72465;BME280;60471;52.150;4.508;2023-02-28T01:17:12;102971.78;;;5.46;71.91
72465;BME280;60471;52.150;4.508;2023-02-28T01:19:38;102968.44;;;5.67;71.42
72465;BME280;60471;52.150;4.508;2023-02-28T01:22:05;102971.88;;;5.60;71.70
72465;BME280;60471;52.150;4.508;2023-02-28T01:24:32;102977.09;;;5.58;71.98
72465;BME280;60471;52.150;4.508;2023-02-28T01:26:58;102976.31;;;5.67;71.95
72465;BME280;60471;52.150;4.508;2023-02-28T01:29:25;102978.03;;;5.66;71.65
72465;BME280;60471;52.150;4.508;2023-02-28T01:31:51;102979.88;;;5.81;71.46
72465;BME280;60471;52.150;4.508;2023-02-28T01:34:17;102965.84;;;5.70;71.85
72465;BME280;60471;52.150;4.508;2023-02-28T01:36:45;102964.03;;;5.64;71.74
72465;BME280;60471;52.150;4.508;2023-02-28T01:39:11;102964.94;;;5.65;71.37
72465;BME280;60471;52.150;4.508;2023-02-28T01:41:39;102967.56;;;5.66;71.95
72465;BME280;60471;52.150;4.508;2023-02-28T01:44:53;102958.88;;;5.73;71.18
72465;BME280;60471;52.150;4.508;2023-02-28T01:47:11;102957.16;;;5.78;71.60
72465;BME280;60471;52.150;4.508;2023-02-28T01:49:38;102950.19;;;5.77;71.41
72465;BME280;60471;52.150;4.508;2023-02-28T01:52:05;102944.94;;;5.82;71.31
72465;BME280;60471;52.150;4.508;2023-02-28T01:54:34;102950.13;;;5.68;71.41
72465;BME280;60471;52.150;4.508;2023-02-28T01:57:04;102948.31;;;5.63;71.76
72465;BME280;60471;52.150;4.508;2023-02-28T01:59:43;102944.88;;;5.70;72.41
72465;BME280;60471;52.150;4.508;2023-02-28T02:02:18;102944.06;;;5.75;71.65
72465;BME280;60471;52.150;4.508;2023-02-28T02:04:59;102944.88;;;5.68;71.73
72465;BME280;60471;52.150;4.508;2023-02-28T02:07:33;102943.19;;;5.79;71.77
72465;BME280;60471;52.150;4.508;2023-02-28T02:10:06;102946.63;;;5.69;72.19
72465;BME280;60471;52.150;4.508;2023-02-28T02:19:03;102948.44;;;5.76;72.32
72465;BME280;60471;52.150;4.508;2023-02-28T02:24:45;102944.16;;;5.92;71.63
72465;BME280;60471;52.150;4.508;2023-02-28T02:27:52;102934.47;;;5.79;72.37
72465;BME280;60471;52.150;4.508;2023-02-28T02:34:00;102930.91;;;5.72;72.76
72465;BME280;60471;52.150;4.508;2023-02-28T02:36:33;102924.03;;;5.90;72.39
72465;BME280;60471;52.150;4.508;2023-02-28T02:41:58;102927.53;;;5.87;72.47
72465;BME280;60471;52.150;4.508;2023-02-28T02:44:32;102921.38;;;5.79;72.31
72465;BME280;60471;52.150;4.508;2023-02-28T02:47:10;102921.47;;;5.91;72.13
72465;BME280;60471;52.150;4.508;2023-02-28T02:49:45;102926.56;;;5.70;72.67
72465;BME280;60471;52.150;4.508;2023-02-28T02:52:18;102926.72;;;5.96;72.30
72465;BME280;60471;52.150;4.508;2023-02-28T02:54:50;102931.06;;;5.95;72.38
72465;BME280;60471;52.150;4.508;2023-02-28T02:57:30;102926.63;;;5.83;72.27
72465;BME280;60471;52.150;4.508;2023-02-28T02:59:59;102921.31;;;5.74;72.79
72465;BME280;60471;52.150;4.508;2023-02-28T03:02:29;102924.81;;;5.72;73.22
72465;BME280;60471;52.150;4.508;2023-02-28T03:05:04;102928.34;;;5.81;72.51
72465;BME280;60471;52.150;4.508;2023-02-28T03:07:34;102928.41;;;5.86;72.22
72465;BME280;60471;52.150;4.508;2023-02-28T03:10:00;102931.84;;;5.83;72.12
72465;BME280;60471;52.150;4.508;2023-02-28T03:12:40;102931.84;;;5.79;72.70
72465;BME280;60471;52.150;4.508;2023-02-28T03:15:19;102934.56;;;5.91;72.55
72465;BME280;60471;52.150;4.508;2023-02-28T03:18:03;102929.31;;;5.91;72.46
72465;BME280;60471;52.150;4.508;2023-02-28T03:23:21;102929.38;;;6.00;72.51
72465;BME280;60471;52.150;4.508;2023-02-28T03:26:07;102931.97;;;5.99;72.39
72465;BME280;60471;52.150;4.508;2023-02-28T03:28:46;102924.13;;;6.03;72.19
72465;BME280;60471;52.150;4.508;2023-02-28T03:31:26;102923.13;;;5.85;72.25
72465;BME280;60471;52.150;4.508;2023-02-28T03:34:11;102920.50;;;5.75;72.93
72465;BME280;60471;52.150;4.508;2023-02-28T03:36:51;102917.00;;;5.84;73.30
72465;BME280;60471;52.150;4.508;2023-02-28T03:39:28;102921.38;;;5.82;73.40
72465;BME280;60471;52.150;4.508;2023-02-28T03:42:04;102916.25;;;6.00;73.34
72465;BME280;60471;52.150;4.508;2023-02-28T03:44:40;102917.13;;;5.98;73.06
72465;BME280;60471;52.150;4.508;2023-02-28T03:47:17;102911.91;;;6.02;73.07
72465;BME280;60471;52.150;4.508;2023-02-28T03:50:18;102917.13;;;5.98;72.95
72465;BME280;60471;52.150;4.508;2023-02-28T03:52:57;102918.88;;;5.99;73.09
72465;BME280;60471;52.150;4.508;2023-02-28T03:55:35;102915.34;;;5.94;72.94
72465;BME280;60471;52.150;4.508;2023-02-28T04:01:11;102918.00;;;6.03;72.66
72465;BME280;60471;52.150;4.508;2023-02-28T04:03:42;102914.53;;;6.07;72.65
72465;BME280;60471;52.150;4.508;2023-02-28T04:06:15;102916.31;;;6.16;71.97
72465;BME280;60471;52.150;4.508;2023-02-28T04:08:44;102920.63;;;6.07;72.53
72465;BME280;60471;52.150;4.508;2023-02-28T04:11:21;102920.69;;;6.10;72.21
72465;BME280;60471;52.150;4.508;2023-02-28T04:13:55;102924.22;;;6.23;71.89
72465;BME280;60471;52.150;4.508;2023-02-28T04:16:22;102933.78;;;6.12;72.22
72465;BME280;60471;52.150;4.508;2023-02-28T04:18:48;102935.53;;;6.08;72.64
72465;BME280;60471;52.150;4.508;2023-02-28T04:21:14;102933.75;;;6.03;72.61
72465;BME280;60471;52.150;4.508;2023-02-28T04:23:40;102929.38;;;5.99;72.24
72465;BME280;60471;52.150;4.508;2023-02-28T04:26:07;102931.97;;;5.99;73.13
72465;BME280;60471;52.150;4.508;2023-02-28T04:28:33;102931.94;;;5.96;72.32
72465;BME280;60471;52.150;4.508;2023-02-28T04:31:03;102931.06;;;5.92;72.91
72465;BME280;60471;52.150;4.508;2023-02-28T04:33:31;102931.13;;;5.98;73.09
72465;BME280;60471;52.150;4.508;2023-02-28T04:36:03;102928.50;;;6.06;72.66
72465;BME280;60471;52.150;4.508;2023-02-28T04:38:35;102927.66;;;6.15;71.88
72465;BME280;60471;52.150;4.508;2023-02-28T04:41:03;102932.03;;;6.16;72.20
72465;BME280;60471;52.150;4.508;2023-02-28T04:43:30;102933.78;;;6.10;72.28
72465;BME280;60471;52.150;4.508;2023-02-28T04:45:57;102935.44;;;5.90;73.08
72465;BME280;60471;52.150;4.508;2023-02-28T04:48:32;102938.84;;;5.78;73.78
72465;BME280;60471;52.150;4.508;2023-02-28T04:51:05;102932.72;;;5.78;74.53
72465;BME280;60471;52.150;4.508;2023-02-28T04:53:34;102932.72;;;5.84;74.97
72465;BME280;60471;52.150;4.508;2023-02-28T04:56:01;102935.44;;;5.90;75.13
72465;BME280;60471;52.150;4.508;2023-02-28T04:58:28;102933.72;;;5.98;74.51
72465;BME280;60471;52.150;4.508;2023-02-28T05:01:02;102928.44;;;5.94;74.54
72465;BME280;60471;52.150;4.508;2023-02-28T05:03:30;102928.50;;;6.03;74.78
72465;BME280;60471;52.150;4.508;2023-02-28T05:05:56;102925.91;;;6.10;73.84
72465;BME280;60471;52.150;4.508;2023-02-28T05:08:23;102924.19;;;6.16;73.69
72465;BME280;60471;52.150;4.508;2023-02-28T05:10:49;102928.53;;;6.12;73.13
72465;BME280;60471;52.150;4.508;2023-02-28T05:13:15;102925.91;;;6.09;73.46
72465;BME280;60471;52.150;4.508;2023-02-28T05:15:41;102934.66;;;6.08;73.47
72465;BME280;60471;52.150;4.508;2023-02-28T05:18:08;102932.03;;;6.08;72.96
72465;BME280;60471;52.150;4.508;2023-02-28T05:20:34;102933.78;;;6.09;72.38
72465;BME280;60471;52.150;4.508;2023-02-28T05:23:01;102932.00;;;6.05;71.94
72465;BME280;60471;52.150;4.508;2023-02-28T05:25:27;102921.50;;;6.00;70.89
72465;BME280;60471;52.150;4.508;2023-02-28T05:27:54;102924.03;;;5.90;71.08
72465;BME280;60471;52.150;4.508;2023-02-28T05:30:20;102930.19;;;5.90;71.17
72465;BME280;60471;52.150;4.508;2023-02-28T05:32:50;102928.38;;;5.85;70.37
72465;BME280;60471;52.150;4.508;2023-02-28T05:35:17;102932.72;;;5.86;69.85
72465;BME280;60471;52.150;4.508;2023-02-28T05:37:44;102930.16;;;5.89;70.24
72465;BME280;60471;52.150;4.508;2023-02-28T05:40:10;102930.19;;;5.95;69.64
72465;BME280;60471;52.150;4.508;2023-02-28T05:42:37;102932.81;;;5.93;69.73
72465;BME280;60471;52.150;4.508;2023-02-28T05:45:05;102932.88;;;6.01;69.20
72465;BME280;60471;52.150;4.508;2023-02-28T05:47:32;102933.69;;;5.94;68.99
72465;BME280;60471;52.150;4.508;2023-02-28T05:49:59;102936.28;;;5.89;69.21
72465;BME280;60471;52.150;4.508;2023-02-28T05:52:26;102937.19;;;5.91;68.96
72465;BME280;60471;52.150;4.508;2023-02-28T05:54:53;102938.94;;;5.91;68.81
72465;BME280;60471;52.150;4.508;2023-02-28T05:57:19;102928.50;;;6.01;68.36
72465;BME280;60471;52.150;4.508;2023-02-28T05:59:45;102940.72;;;6.05;67.75
72465;BME280;60471;52.150;4.508;2023-02-28T06:02:13;102935.41;;;5.89;67.08
72465;BME280;60471;52.150;4.508;2023-02-28T06:04:43;102940.63;;;5.87;66.47
72465;BME280;60471;52.150;4.508;2023-02-28T06:07:10;102943.19;;;5.76;66.77
72465;BME280;60471;52.150;4.508;2023-02-28T06:09:37;102939.72;;;5.83;66.71
72465;BME280;60471;52.150;4.508;2023-02-28T06:12:05;102929.22;;;5.82;66.78
72465;BME280;60471;52.150;4.508;2023-02-28T06:14:34;102944.13;;;5.88;67.22
72465;BME280;60471;52.150;4.508;2023-02-28T06:17:01;102934.47;;;5.80;67.35
72465;BME280;60471;52.150;4.508;2023-02-28T06:19:31;102941.38;;;5.68;66.78
72465;BME280;60471;52.150;4.508;2023-02-28T06:21:57;102933.53;;;5.65;66.55
72465;BME280;60471;52.150;4.508;2023-02-28T06:24:25;102931.59;;;5.39;67.44
72465;BME280;60471;52.150;4.508;2023-02-28T06:26:53;102935.13;;;5.44;66.96
72465;BME280;60471;52.150;4.508;2023-02-28T06:29:20;102930.72;;;5.42;67.48
72465;BME280;60471;52.150;4.508;2023-02-28T06:31:46;102937.69;;;5.38;67.98
72465;BME280;60471;52.150;4.508;2023-02-28T06:34:13;102940.28;;;5.34;67.89
72465;BME280;60471;52.150;4.508;2023-02-28T06:36:41;102940.31;;;5.41;67.79
72465;BME280;60471;52.150;4.508;2023-02-28T06:39:09;102946.63;;;5.66;70.05
72465;BME280;60471;52.150;4.508;2023-02-28T06:41:35;102945.81;;;5.78;69.64
72465;BME280;60471;52.150;4.508;2023-02-28T06:44:05;102942.34;;;5.82;69.11
72465;BME280;60471;52.150;4.508;2023-02-28T06:46:32;102945.75;;;5.67;68.30
72465;BME280;60471;52.150;4.508;2023-02-28T06:48:58;102951.66;;;5.39;69.34
72465;BME280;60471;52.150;4.508;2023-02-28T06:51:24;102947.97;;;5.12;70.70
72465;BME280;60471;52.150;4.508;2023-02-28T06:53:50;102947.88;;;5.03;70.84
72465;BME280;60471;52.150;4.508;2023-02-28T06:56:17;102954.66;;;4.84;71.70
72465;BME280;60471;52.150;4.508;2023-02-28T06:58:47;102960.75;;;4.82;72.16
72465;BME280;60471;52.150;4.508;2023-02-28T07:01:15;102962.41;;;4.74;72.80
72465;BME280;60471;52.150;4.508;2023-02-28T07:03:42;102967.75;;;4.84;72.90
72465;BME280;60471;52.150;4.508;2023-02-28T07:06:08;102962.63;;;4.97;73.06
72465;BME280;60471;52.150;4.508;2023-02-28T07:08:35;102971.31;;;4.89;73.76
72465;BME280;60471;52.150;4.508;2023-02-28T07:11:02;102970.53;;;4.22;74.80
72465;BME280;60471;52.150;4.508;2023-02-28T07:13:29;102981.56;;;4.01;76.35
72465;BME280;60471;52.150;4.508;2023-02-28T07:16:01;102982.09;;;3.76;76.14
72465;BME280;60471;52.150;4.508;2023-02-28T07:18:29;102982.66;;;3.57;76.07
72465;BME280;60471;52.150;4.508;2023-02-28T07:20:56;102993.19;;;3.61;75.40
72465;BME280;60471;52.150;4.508;2023-02-28T07:23:23;102989.59;;;3.56;75.35
72465;BME280;60471;52.150;4.508;2023-02-28T07:25:51;102997.28;;;3.47;75.16
72465;BME280;60471;52.150;4.508;2023-02-28T07:28:17;103003.34;;;3.44;75.46
72465;BME280;60471;52.150;4.508;2023-02-28T07:30:44;102998.19;;;3.47;75.95
72465;BME280;60471;52.150;4.508;2023-02-28T07:33:10;102999.13;;;3.53;75.21
72465;BME280;60471;52.150;4.508;2023-02-28T07:35:36;102998.22;;;3.49;75.76
72465;BME280;60471;52.150;4.508;2023-02-28T07:38:03;102992.38;;;3.65;75.64
72465;BME280;60471;52.150;4.508;2023-02-28T07:40:29;102998.47;;;3.66;75.58
72465;BME280;60471;52.150;4.508;2023-02-28T07:42:56;102998.63;;;3.76;75.44
72465;BME280;60471;52.150;4.508;2023-02-28T07:45:22;102995.31;;;3.88;74.79
72465;BME280;60471;52.150;4.508;2023-02-28T07:47:48;103003.00;;;3.79;74.98
72465;BME280;60471;52.150;4.508;2023-02-28T07:50:15;103003.78;;;3.70;75.25
72465;BME280;60471;52.150;4.508;2023-02-28T07:52:42;103009.63;;;3.57;75.73
72465;BME280;60471;52.150;4.508;2023-02-28T07:55:09;103006.38;;;3.70;76.20
72465;BME280;60471;52.150;4.508;2023-02-28T07:57:35;102998.50;;;3.69;76.22
72465;BME280;60471;52.150;4.508;2023-02-28T08:00:04;102995.94;;;3.70;75.95
72465;BME280;60471;52.150;4.508;2023-02-28T08:02:31;102991.75;;;3.80;75.63
72465;BME280;60471;52.150;4.508;2023-02-28T08:04:57;102999.34;;;3.68;75.29
72465;BME280;60471;52.150;4.508;2023-02-28T08:07:25;103002.81;;;3.67;75.80
72465;BME280;60471;52.150;4.508;2023-02-28T08:09:51;103006.09;;;3.52;76.32
72465;BME280;60471;52.150;4.508;2023-02-28T08:12:18;103008.63;;;3.47;75.90
72465;BME280;60471;52.150;4.508;2023-02-28T08:14:44;103012.88;;;3.41;77.37
72465;BME280;60471;52.150;4.508;2023-02-28T08:17:11;103009.03;;;3.20;77.03
72465;BME280;60471;52.150;4.508;2023-02-28T08:19:38;103004.84;;;3.29;76.93
72465;BME280;60471;52.150;4.508;2023-02-28T08:22:04;103008.28;;;3.28;77.38
72465;BME280;60471;52.150;4.508;2023-02-28T08:24:30;103009.06;;;3.22;77.55
72465;BME280;60471;52.150;4.508;2023-02-28T08:26:56;103013.72;;;3.40;77.35
72465;BME280;60471;52.150;4.508;2023-02-28T08:29:23;103009.44;;;3.45;77.35
72465;BME280;60471;52.150;4.508;2023-02-28T08:31:49;103005.94;;;3.44;77.19
72465;BME280;60471;52.150;4.508;2023-02-28T08:34:15;103009.00;;;3.72;76.94
72465;BME280;60471;52.150;4.508;2023-02-28T08:36:42;103015.78;;;3.59;76.46
72465;BME280;60471;52.150;4.508;2023-02-28T08:39:10;103013.22;;;3.64;76.40
72465;BME280;60471;52.150;4.508;2023-02-28T08:41:37;103002.03;;;3.71;76.45
72465;BME280;60471;52.150;4.508;2023-02-28T08:44:04;103009.88;;;3.71;76.09
72465;BME280;60471;52.150;4.508;2023-02-28T08:46:30;103001.81;;;3.57;76.61
72465;BME280;60471;52.150;4.508;2023-02-28T08:48:56;103002.63;;;3.55;76.45
72465;BME280;60471;52.150;4.508;2023-02-28T08:51:28;103000.47;;;3.82;76.53
72465;BME280;60471;52.150;4.508;2023-02-28T08:53:57;102991.84;;;3.89;76.30
72465;BME280;60471;52.150;4.508;2023-02-28T08:56:26;103002.34;;;3.92;76.00
72465;BME280;60471;52.150;4.508;2023-02-28T08:58:56;102998.09;;;4.00;75.65
72465;BME280;60471;52.150;4.508;2023-02-28T09:01:27;103004.44;;;4.16;75.52
72465;BME280;60471;52.150;4.508;2023-02-28T09:03:55;102992.34;;;4.26;75.63
72465;BME280;60471;52.150;4.508;2023-02-28T09:06:26;102981.22;;;4.42;73.91
72465;BME280;60471;52.150;4.508;2023-02-28T09:08:52;102983.09;;;4.52;74.76
72465;BME280;60471;52.150;4.508;2023-02-28T09:11:19;102985.03;;;4.69;74.34
72465;BME280;60471;52.150;4.508;2023-02-28T09:13:46;102986.13;;;4.90;74.15
72465;BME280;60471;52.150;4.508;2023-02-28T09:16:14;102993.97;;;4.89;74.07
72465;BME280;60471;52.150;4.508;2023-02-28T09:18:42;102991.47;;;5.00;73.89
72465;BME280;60471;52.150;4.508;2023-02-28T09:21:12;102982.88;;;5.17;73.47
72465;BME280;60471;52.150;4.508;2023-02-28T09:23:41;102996.06;;;5.27;72.71
72465;BME280;60471;52.150;4.508;2023-02-28T09:26:16;102987.31;;;5.26;72.45
72465;BME280;60471;52.150;4.508;2023-02-28T09:28:50;102987.41;;;5.32;72.02
72465;BME280;60471;52.150;4.508;2023-02-28T09:31:23;102984.00;;;5.44;71.94
72465;BME280;60471;52.150;4.508;2023-02-28T09:33:55;102980.53;;;5.51;71.44
72465;BME280;60471;52.150;4.508;2023-02-28T09:36:24;102983.16;;;5.51;71.58
72465;BME280;60471;52.150;4.508;2023-02-28T09:38:52;102985.03;;;5.70;71.79
72465;BME280;60471;52.150;4.508;2023-02-28T09:41:21;102990.50;;;5.98;71.33
72465;BME280;60471;52.150;4.508;2023-02-28T09:43:59;102996.63;;;6.04;71.11
72465;BME280;60471;52.150;4.508;2023-02-28T09:46:38;102995.75;;;6.05;70.90
72465;BME280;60471;52.150;4.508;2023-02-28T09:49:14;102992.31;;;6.16;70.56
72465;BME280;60471;52.150;4.508;2023-02-28T09:51:58;102995.03;;;6.31;70.00
72465;BME280;60471;52.150;4.508;2023-02-28T09:54:32;102998.59;;;6.42;69.48
72465;BME280;60471;52.150;4.508;2023-02-28T09:59:39;102998.69;;;6.79;66.92
72465;BME280;60471;52.150;4.508;2023-02-28T10:05:10;102994.28;;;6.70;64.00
72465;BME280;60471;52.150;4.508;2023-02-28T10:10:45;102990.03;;;7.29;62.12
72465;BME280;60471;52.150;4.508;2023-02-28T10:16:08;102991.75;;;7.37;61.05
72465;BME280;60471;52.150;4.508;2023-02-28T10:18:50;102992.66;;;7.29;60.96
72465;BME280;60471;52.150;4.508;2023-02-28T10:21:33;103003.13;;;7.70;60.20
72465;BME280;60471;52.150;4.508;2023-02-28T10:27:17;102997.78;;;8.11;59.42
72465;BME280;60471;52.150;4.508;2023-02-28T10:29:55;103003.13;;;7.74;57.32
72465;BME280;60471;52.150;4.508;2023-02-28T10:32:25;103005.78;;;7.29;58.76
72465;BME280;60471;52.150;4.508;2023-02-28T10:34:57;102995.25;;;7.47;59.16
72465;BME280;60471;52.150;4.508;2023-02-28T10:37:30;102988.22;;;7.69;59.29
72465;BME280;60471;52.150;4.508;2023-02-28T10:39:58;103004.03;;;7.38;57.77
72465;BME280;60471;52.150;4.508;2023-02-28T10:42:29;103009.06;;;6.41;56.25
72465;BME280;60471;52.150;4.508;2023-02-28T10:45:06;103003.84;;;6.50;56.68
72465;BME280;60471;52.150;4.508;2023-02-28T10:47:42;103006.25;;;6.07;56.40
72465;BME280;60471;52.150;4.508;2023-02-28T10:53:30;103001.94;;;6.10;55.75
72465;BME280;60471;52.150;4.508;2023-02-28T10:56:05;103002.53;;;5.74;55.17
72465;BME280;60471;52.150;4.508;2023-02-28T11:03:49;102994.06;;;6.17;55.88
72465;BME280;60471;52.150;4.508;2023-02-28T11:06:17;102995.22;;;6.86;56.33
72465;BME280;60471;52.150;4.508;2023-02-28T11:08:53;102982.91;;;7.99;53.88
72465;BME280;60471;52.150;4.508;2023-02-28T11:11:26;102977.81;;;9.33;50.28
72465;BME280;60471;52.150;4.508;2023-02-28T11:14:03;102978.44;;;10.40;45.81
72465;BME280;60471;52.150;4.508;2023-02-28T11:16:33;102965.97;;;14.57;37.19
72465;BME280;60471;52.150;4.508;2023-02-28T11:19:01;102948.75;;;16.69;33.46
72465;BME280;60471;52.150;4.508;2023-02-28T11:21:32;102959.25;;;17.79;32.07
72465;BME280;60471;52.150;4.508;2023-02-28T11:26:57;102946.50;;;20.67;25.26
72465;BME280;60471;52.150;4.508;2023-02-28T11:29:27;102941.72;;;20.88;23.95
72465;BME280;60471;52.150;4.508;2023-02-28T11:32:25;102939.78;;;22.51;22.00
72465;BME280;60471;52.150;4.508;2023-02-28T11:35:48;102935.19;;;23.59;21.16
72465;BME280;60471;52.150;4.508;2023-02-28T11:38:00;102938.00;;;23.70;20.80
72465;BME280;60471;52.150;4.508;2023-02-28T11:40:31;102941.91;;;24.78;19.68
72465;BME280;60471;52.150;4.508;2023-02-28T11:43:29;102935.19;;;23.59;21.72
72465;BME280;60471;52.150;4.508;2023-02-28T11:47:04;102926.13;;;24.48;19.85
72465;BME280;60471;52.150;4.508;2023-02-28T11:49:14;102911.53;;;26.02;17.80
72465;BME280;60471;52.150;4.508;2023-02-28T11:51:56;102922.25;;;25.35;18.17
72465;BME280;60471;52.150;4.508;2023-02-28T11:57:24;102924.00;;;19.56;22.80
72465;BME280;60471;52.150;4.508;2023-02-28T12:06:16;102915.50;;;15.36;28.39
72465;BME280;60471;52.150;4.508;2023-02-28T12:11:42;102922.06;;;13.16;30.93
72465;BME280;60471;52.150;4.508;2023-02-28T12:14:30;102919.50;;;14.11;30.87
72465;BME280;60471;52.150;4.508;2023-02-28T12:20:53;102902.69;;;17.89;25.72
72465;BME280;60471;52.150;4.508;2023-02-28T12:29:10;102892.19;;;21.53;21.18
72465;BME280;60471;52.150;4.508;2023-02-28T12:32:05;102888.34;;;23.98;18.56
72465;BME280;60471;52.150;4.508;2023-02-28T12:35:04;102883.47;;;25.58;16.36
72465;BME280;60471;52.150;4.508;2023-02-28T12:37:54;102876.41;;;26.45;15.55
72465;BME280;60471;52.150;4.508;2023-02-28T12:40:43;102869.34;;;27.18;15.09
72465;BME280;60471;52.150;4.508;2023-02-28T12:43:15;102866.44;;;26.46;15.47
72465;BME280;60471;52.150;4.508;2023-02-28T12:45:59;102867.97;;;27.03;15.29
72465;BME280;60471;52.150;4.508;2023-02-28T12:48:46;102863.41;;;28.25;14.08
72465;BME280;60471;52.150;4.508;2023-02-28T12:51:17;102865.06;;;29.05;13.07
72465;BME280;60471;52.150;4.508;2023-02-28T12:59:23;102862.72;;;28.23;13.29
72465;BME280;60471;52.150;4.508;2023-02-28T13:10:44;102842.44;;;27.87;13.84
72465;BME280;60471;52.150;4.508;2023-02-28T13:13:17;102848.09;;;28.05;14.20
72465;BME280;60471;52.150;4.508;2023-02-28T13:16:12;102836.09;;;27.67;14.52
72465;BME280;60471;52.150;4.508;2023-02-28T13:18:46;102845.88;;;27.80;13.17
72465;BME280;60471;52.150;4.508;2023-02-28T13:21:29;102836.88;;;28.29;13.91
72465;BME280;60471;52.150;4.508;2023-02-28T13:23:59;102834.78;;;27.92;13.58
72465;BME280;60471;52.150;4.508;2023-02-28T13:29:41;102829.31;;;27.52;14.44
72465;BME280;60471;52.150;4.508;2023-02-28T13:34:38;102815.84;;;26.99;14.57
72465;BME280;60471;52.150;4.508;2023-02-28T13:39:53;102821.53;;;25.66;15.33
72465;BME280;60471;52.150;4.508;2023-02-28T13:45:22;102817.94;;;26.11;15.36
72465;BME280;60471;52.150;4.508;2023-02-28T13:47:54;102826.31;;;25.29;16.61
72465;BME280;60471;52.150;4.508;2023-02-28T13:50:34;102810.91;;;27.25;15.12
72465;BME280;60471;52.150;4.508;2023-02-28T14:05:15;102806.56;;;23.98;17.29
72465;BME280;60471;52.150;4.508;2023-02-28T14:07:49;102803.31;;;23.31;18.67
72465;BME280;60471;52.150;4.508;2023-02-28T14:10:31;102802.19;;;25.04;16.17
72465;BME280;60471;52.150;4.508;2023-02-28T14:16:27;102792.44;;;24.90;17.46
72465;BME280;60471;52.150;4.508;2023-02-28T14:19:22;102793.72;;;26.94;15.48
72465;BME280;60471;52.150;4.508;2023-02-28T14:22:14;102783.13;;;28.42;13.47
72465;BME280;60471;52.150;4.508;2023-02-28T14:25:31;102791.28;;;25.61;15.68
72465;BME280;60471;52.150;4.508;2023-02-28T14:31:09;102788.13;;;24.05;16.50
72465;BME280;60471;52.150;4.508;2023-02-28T14:36:42;102784.91;;;23.99;16.43
72465;BME280;60471;52.150;4.508;2023-02-28T14:39:15;102781.03;;;23.16;17.43
72465;BME280;60471;52.150;4.508;2023-02-28T14:41:46;102783.47;;;23.57;17.92
72465;BME280;60471;52.150;4.508;2023-02-28T14:44:14;102785.41;;;25.23;15.34
72465;BME280;60471;52.150;4.508;2023-02-28T14:46:49;102785.13;;;22.56;17.66
72465;BME280;60471;52.150;4.508;2023-02-28T14:52:15;102788.16;;;23.17;17.77
72465;BME280;60471;52.150;4.508;2023-02-28T14:54:43;102787.13;;;25.35;16.24
72465;BME280;60471;52.150;4.508;2023-02-28T14:57:22;102788.25;;;22.63;17.86
72465;BME280;60471;52.150;4.508;2023-02-28T15:00:24;102794.31;;;22.13;19.40
72465;BME280;60471;52.150;4.508;2023-02-28T15:02:53;102789.25;;;22.08;19.52
72465;BME280;60471;52.150;4.508;2023-02-28T15:10:37;102783.97;;;21.92;19.16
72465;BME280;60471;52.150;4.508;2023-02-28T15:13:09;102785.88;;;19.83;21.92
72465;BME280;60471;52.150;4.508;2023-02-28T15:15:49;102791.47;;;19.63;21.66
72465;BME280;60471;52.150;4.508;2023-02-28T15:18:33;102787.47;;;22.48;18.65
72465;BME280;60471;52.150;4.508;2023-02-28T15:23:51;102778.75;;;22.84;18.33
72465;BME280;60471;52.150;4.508;2023-02-28T15:26:28;102785.91;;;22.32;18.03
72465;BME280;60471;52.150;4.508;2023-02-28T15:29:05;102788.72;;;22.30;18.07